sensor_id;sensor_type;location;lat;lon;timestamp;temperature;humidity
24645;DHT22;12780;45.502;9.146;2023-04-01T00:01:11;12.70;99.90
24645;DHT22;12780;45.502;9.146;2023-04-01T00:03:39;12.60;99.90
24645;DHT22;12780;45.502;9.146;2023-04-01T00:06:05;12.50;99.90
24645;DHT22;12780;45.502;9.146;2023-04-01T00:08:31;12.50;99.90
24645;DHT22;12780;45.502;9.146;2023-04-01T00:10:57;12.50;99.90
24645;DHT22;12780;45.502;9.146;2023-04-01T00:13:24;12.40;99.90
24645;DHT22;12780;45.502;9.146;2023-04-01T00:15:51;12.40;99.90
24645;DHT22;12780;45.502;9.146;2023-04-01T00:18:16;12.40;99.90
24645;DHT22;12780;45.502;9.146;2023-04-01T00:20:46;12.40;99.90
24645;DHT22;12780;45.502;9.146;2023-04-01T00:23:12;12.40;99.90
24645;DHT22;12780;45.502;9.146;2023-04-01T00:25:38;12.40;99.90
24645;DHT22;12780;45.502;9.146;2023-04-01T00:28:04;12.40;99.90
24645;DHT22;12780;45.502;9.146;2023-04-01T00:30:29;12.40;99.90
24645;DHT22;12780;45.502;9.146;2023-04-01T00:32:55;12.50;99.90
24645;DHT22;12780;45.502;9.146;2023-04-01T00:35:21;12.40;99.90
24645;DHT22;12780;45.502;9.146;2023-04-01T00:37:47;12.40;99.90
24645;DHT22;12780;45.502;9.146;2023-04-01T00:40:32;12.40;99.90
24645;DHT22;12780;45.502;9.146;2023-04-01T00:42:58;12.40;99.90
24645;DHT22;12780;45.502;9.146;2023-04-01T00:45:34;12.40;99.90
24645;DHT22;12780;45.502;9.146;2023-04-01T00:48:05;12.30;99.90
24645;DHT22;12780;45.502;9.146;2023-04-01T00:50:33;12.30;99.90
24645;DHT22;12780;45.502;9.146;2023-04-01T00:53:00;12.30;99.90
24645;DHT22;12780;45.502;9.146;2023-04-01T00:55:28;12.30;99.90
24645;DHT22;12780;45.502;9.146;2023-04-01T00:57:55;12.30;99.90
24645;DHT22;12780;45.502;9.146;2023-04-01T01:00:22;12.30;99.90
24645;DHT22;12780;45.502;9.146;2023-04-01T01:02:50;12.30;99.90
24645;DHT22;12780;45.502;9.146;2023-04-01T01:05:18;12.30;99.90
24645;DHT22;12780;45.502;9.146;2023-04-01T01:08:09;12.40;99.90
24645;DHT22;12780;45.502;9.146;2023-04-01T01:10:39;12.20;99.90
24645;DHT22;12780;45.502;9.146;2023-04-01T01:13:29;12.20;99.90
24645;DHT22;12780;45.502;9.146;2023-04-01T01:16:06;12.20;99.90
24645;DHT22;12780;45.502;9.146;2023-04-01T01:21:47;12.20;99.90
24645;DHT22;12780;45.502;9.146;2023-04-01T01:24:36;12.20;99.90
24645;DHT22;12780;45.502;9.146;2023-04-01T01:27:20;12.00;99.90
24645;DHT22;12780;45.502;9.146;2023-04-01T01:30:08;12.00;99.90
24645;DHT22;12780;45.502;9.146;2023-04-01T01:38:04;11.80;99.90
24645;DHT22;12780;45.502;9.146;2023-04-01T01:40:32;11.80;99.90
24645;DHT22;12780;45.502;9.146;2023-04-01T01:43:04;11.80;99.90
24645;DHT22;12780;45.502;9.146;2023-04-01T01:45:33;11.80;99.90
24645;DHT22;12780;45.502;9.146;2023-04-01T01:48:00;11.70;99.90
24645;DHT22;12780;45.502;9.146;2023-04-01T01:50:27;11.60;99.90
24645;DHT22;12780;45.502;9.146;2023-04-01T01:53:05;11.50;99.90
24645;DHT22;12780;45.502;9.146;2023-04-01T01:55:32;11.50;99.90
24645;DHT22;12780;45.502;9.146;2023-04-01T01:58:02;11.40;99.90
24645;DHT22;12780;45.502;9.146;2023-04-01T02:00:30;11.50;99.90
24645;DHT22;12780;45.502;9.146;2023-04-01T02:02:57;11.40;99.90
24645;DHT22;12780;45.502;9.146;2023-04-01T02:05:25;11.40;99.90
24645;DHT22;12780;45.502;9.146;2023-04-01T02:08:16;11.30;99.90
24645;DHT22;12780;45.502;9.146;2023-04-01T02:10:49;11.40;99.90
24645;DHT22;12780;45.502;9.146;2023-04-01T02:13:22;11.40;99.90
24645;DHT22;12780;45.502;9.146;2023-04-01T02:15:54;11.30;99.90
24645;DHT22;12780;45.502;9.146;2023-04-01T02:18:22;11.30;99.90
24645;DHT22;12780;45.502;9.146;2023-04-01T02:20:48;11.30;99.90
24645;DHT22;12780;45.502;9.146;2023-04-01T02:23:14;11.20;99.90
24645;DHT22;12780;45.502;9.146;2023-04-01T02:25:41;11.20;99.90
24645;DHT22;12780;45.502;9.146;2023-04-01T02:28:09;11.20;99.90
24645;DHT22;12780;45.502;9.146;2023-04-01T02:30:36;11.20;99.90
24645;DHT22;12780;45.502;9.146;2023-04-01T02:33:05;11.20;99.90
24645;DHT22;12780;45.502;9.146;2023-04-01T02:35:35;11.20;99.90
24645;DHT22;12780;45.502;9.146;2023-04-01T02:38:02;11.20;99.90
24645;DHT22;12780;45.502;9.146;2023-04-01T02:40:28;11.10;99.90
24645;DHT22;12780;45.502;9.146;2023-04-01T02:42:53;11.20;99.90
24645;DHT22;12780;45.502;9.146;2023-04-01T02:45:19;11.20;99.90
24645;DHT22;12780;45.502;9.146;2023-04-01T02:47:44;11.20;99.90
24645;DHT22;12780;45.502;9.146;2023-04-01T02:50:10;11.30;99.90
24645;DHT22;12780;45.502;9.146;2023-04-01T02:52:36;11.30;99.90
24645;DHT22;12780;45.502;9.146;2023-04-01T02:55:02;11.30;99.90
24645;DHT22;12780;45.502;9.146;2023-04-01T02:57:27;11.30;99.90
24645;DHT22;12780;45.502;9.146;2023-04-01T02:59:53;11.30;99.90
24645;DHT22;12780;45.502;9.146;2023-04-01T03:02:19;11.30;99.90
24645;DHT22;12780;45.502;9.146;2023-04-01T03:04:44;11.20;99.90
24645;DHT22;12780;45.502;9.146;2023-04-01T03:07:11;11.20;99.90
24645;DHT22;12780;45.502;9.146;2023-04-01T03:09:37;11.20;99.90
24645;DHT22;12780;45.502;9.146;2023-04-01T03:12:03;11.20;99.90
24645;DHT22;12780;45.502;9.146;2023-04-01T03:14:28;11.30;99.90
24645;DHT22;12780;45.502;9.146;2023-04-01T03:16:54;11.20;99.90
24645;DHT22;12780;45.502;9.146;2023-04-01T03:19:20;11.30;99.90
24645;DHT22;12780;45.502;9.146;2023-04-01T03:21:45;11.20;99.90
24645;DHT22;12780;45.502;9.146;2023-04-01T03:24:11;11.20;99.90
24645;DHT22;12780;45.502;9.146;2023-04-01T03:26:36;11.20;99.90
24645;DHT22;12780;45.502;9.146;2023-04-01T03:29:02;11.20;99.90
24645;DHT22;12780;45.502;9.146;2023-04-01T03:31:28;11.20;99.90
24645;DHT22;12780;45.502;9.146;2023-04-01T03:33:53;11.20;99.90
24645;DHT22;12780;45.502;9.146;2023-04-01T03:36:19;11.10;99.90
24645;DHT22;12780;45.502;9.146;2023-04-01T03:38:45;11.10;99.90
24645;DHT22;12780;45.502;9.146;2023-04-01T03:41:15;11.10;99.90
24645;DHT22;12780;45.502;9.146;2023-04-01T03:43:41;11.10;99.90
24645;DHT22;12780;45.502;9.146;2023-04-01T03:46:06;11.20;99.90
24645;DHT22;12780;45.502;9.146;2023-04-01T03:48:32;11.10;99.90
24645;DHT22;12780;45.502;9.146;2023-04-01T03:50:58;11.20;99.90
24645;DHT22;12780;45.502;9.146;2023-04-01T03:53:23;11.10;99.90
24645;DHT22;12780;45.502;9.146;2023-04-01T03:55:49;11.10;99.90
24645;DHT22;12780;45.502;9.146;2023-04-01T03:58:16;11.10;99.90
24645;DHT22;12780;45.502;9.146;2023-04-01T04:00:42;11.10;99.90
24645;DHT22;12780;45.502;9.146;2023-04-01T04:03:07;11.10;99.90
24645;DHT22;12780;45.502;9.146;2023-04-01T04:05:33;11.10;99.90
24645;DHT22;12780;45.502;9.146;2023-04-01T04:07:58;11.10;99.90
24645;DHT22;12780;45.502;9.146;2023-04-01T04:10:24;11.10;99.90
24645;DHT22;12780;45.502;9.146;2023-04-01T04:12:51;11.10;99.90
24645;DHT22;12780;45.502;9.146;2023-04-01T04:15:17;11.10;99.90
24645;DHT22;12780;45.502;9.146;2023-04-01T04:17:44;11.10;99.90
24645;DHT22;12780;45.502;9.146;2023-04-01T04:20:10;11.10;99.90
24645;DHT22;12780;45.502;9.146;2023-04-01T04:22:35;11.10;99.90
24645;DHT22;12780;45.502;9.146;2023-04-01T04:25:01;11.10;99.90
24645;DHT22;12780;45.502;9.146;2023-04-01T04:27:26;11.00;99.90
24645;DHT22;12780;45.502;9.146;2023-04-01T04:29:52;11.00;99.90
24645;DHT22;12780;45.502;9.146;2023-04-01T04:32:17;10.90;99.90
24645;DHT22;12780;45.502;9.146;2023-04-01T04:34:43;11.00;99.90
24645;DHT22;12780;45.502;9.146;2023-04-01T04:37:08;11.00;99.90
24645;DHT22;12780;45.502;9.146;2023-04-01T04:39:34;11.00;99.90
24645;DHT22;12780;45.502;9.146;2023-04-01T04:42:00;11.00;99.90
24645;DHT22;12780;45.502;9.146;2023-04-01T04:44:25;11.00;99.90
24645;DHT22;12780;45.502;9.146;2023-04-01T04:46:51;11.00;99.90
24645;DHT22;12780;45.502;9.146;2023-04-01T04:49:17;11.00;99.90
24645;DHT22;12780;45.502;9.146;2023-04-01T04:51:42;11.00;99.90
24645;DHT22;12780;45.502;9.146;2023-04-01T04:54:08;10.90;99.90
24645;DHT22;12780;45.502;9.146;2023-04-01T04:56:34;11.00;99.90
24645;DHT22;12780;45.502;9.146;2023-04-01T04:59:01;10.90;99.90
24645;DHT22;12780;45.502;9.146;2023-04-01T05:01:27;11.00;99.90
24645;DHT22;12780;45.502;9.146;2023-04-01T05:03:52;10.90;99.90
24645;DHT22;12780;45.502;9.146;2023-04-01T05:06:20;10.90;99.90
24645;DHT22;12780;45.502;9.146;2023-04-01T05:08:45;10.80;99.90
24645;DHT22;12780;45.502;9.146;2023-04-01T05:11:16;10.80;99.90
24645;DHT22;12780;45.502;9.146;2023-04-01T05:13:43;10.80;99.90
24645;DHT22;12780;45.502;9.146;2023-04-01T05:16:14;10.80;99.90
24645;DHT22;12780;45.502;9.146;2023-04-01T05:18:39;10.80;99.90
24645;DHT22;12780;45.502;9.146;2023-04-01T05:21:07;10.80;99.90
24645;DHT22;12780;45.502;9.146;2023-04-01T05:23:33;10.80;99.90
24645;DHT22;12780;45.502;9.146;2023-04-01T05:26:06;10.80;99.90
24645;DHT22;12780;45.502;9.146;2023-04-01T05:28:32;10.80;99.90
24645;DHT22;12780;45.502;9.146;2023-04-01T05:30:59;10.80;99.90
24645;DHT22;12780;45.502;9.146;2023-04-01T05:33:26;10.80;99.90
24645;DHT22;12780;45.502;9.146;2023-04-01T05:35:51;10.90;99.90
24645;DHT22;12780;45.502;9.146;2023-04-01T05:38:17;10.70;99.90
24645;DHT22;12780;45.502;9.146;2023-04-01T05:40:42;10.70;99.90
24645;DHT22;12780;45.502;9.146;2023-04-01T05:43:08;10.60;99.90
24645;DHT22;12780;45.502;9.146;2023-04-01T05:45:34;10.60;99.90
24645;DHT22;12780;45.502;9.146;2023-04-01T05:48:00;10.60;99.90
24645;DHT22;12780;45.502;9.146;2023-04-01T05:50:25;10.70;99.90
24645;DHT22;12780;45.502;9.146;2023-04-01T05:52:51;10.60;99.90
24645;DHT22;12780;45.502;9.146;2023-04-01T05:55:17;10.70;99.90
24645;DHT22;12780;45.502;9.146;2023-04-01T05:57:45;10.70;99.90
24645;DHT22;12780;45.502;9.146;2023-04-01T06:00:12;10.80;99.90
24645;DHT22;12780;45.502;9.146;2023-04-01T06:02:38;10.90;99.90
24645;DHT22;12780;45.502;9.146;2023-04-01T06:05:20;10.90;99.90
24645;DHT22;12780;45.502;9.146;2023-04-01T06:07:46;10.90;99.90
24645;DHT22;12780;45.502;9.146;2023-04-01T06:10:17;10.90;99.90
24645;DHT22;12780;45.502;9.146;2023-04-01T06:15:36;10.90;99.90
24645;DHT22;12780;45.502;9.146;2023-04-01T06:26:20;11.00;99.90
24645;DHT22;12780;45.502;9.146;2023-04-01T06:34:29;11.10;99.90
24645;DHT22;12780;45.502;9.146;2023-04-01T06:42:18;11.30;99.90
24645;DHT22;12780;45.502;9.146;2023-04-01T06:52:53;11.60;99.90
24645;DHT22;12780;45.502;9.146;2023-04-01T06:57:59;11.70;99.90
24645;DHT22;12780;45.502;9.146;2023-04-01T07:00:29;11.70;99.90
24645;DHT22;12780;45.502;9.146;2023-04-01T07:03:17;11.80;99.90
24645;DHT22;12780;45.502;9.146;2023-04-01T07:05:43;11.80;99.90
24645;DHT22;12780;45.502;9.146;2023-04-01T07:08:13;11.90;99.90
24645;DHT22;12780;45.502;9.146;2023-04-01T07:10:56;11.90;99.90
24645;DHT22;12780;45.502;9.146;2023-04-01T07:13:51;12.10;99.90
24645;DHT22;12780;45.502;9.146;2023-04-01T07:16:39;12.10;99.90
24645;DHT22;12780;45.502;9.146;2023-04-01T07:19:39;12.20;99.90
24645;DHT22;12780;45.502;9.146;2023-04-01T07:22:29;12.20;99.90
24645;DHT22;12780;45.502;9.146;2023-04-01T07:24:59;12.40;99.90
24645;DHT22;12780;45.502;9.146;2023-04-01T07:27:26;12.40;99.90
24645;DHT22;12780;45.502;9.146;2023-04-01T07:29:55;12.50;99.90
24645;DHT22;12780;45.502;9.146;2023-04-01T07:32:44;12.60;99.90
24645;DHT22;12780;45.502;9.146;2023-04-01T07:35:37;12.70;99.90
24645;DHT22;12780;45.502;9.146;2023-04-01T07:41:04;12.90;99.90
24645;DHT22;12780;45.502;9.146;2023-04-01T07:43:57;13.00;99.90
24645;DHT22;12780;45.502;9.146;2023-04-01T07:49:16;13.30;99.90
24645;DHT22;12780;45.502;9.146;2023-04-01T07:54:47;13.50;99.90
24645;DHT22;12780;45.502;9.146;2023-04-01T07:57:48;13.50;99.90
24645;DHT22;12780;45.502;9.146;2023-04-01T08:00:25;13.60;99.90
24645;DHT22;12780;45.502;9.146;2023-04-01T08:05:48;13.80;99.90
24645;DHT22;12780;45.502;9.146;2023-04-01T08:11:19;13.90;99.90
24645;DHT22;12780;45.502;9.146;2023-04-01T08:14:08;14.00;99.90
24645;DHT22;12780;45.502;9.146;2023-04-01T08:16:54;14.10;99.90
24645;DHT22;12780;45.502;9.146;2023-04-01T08:19:31;14.30;99.90
24645;DHT22;12780;45.502;9.146;2023-04-01T08:22:07;14.50;99.90
24645;DHT22;12780;45.502;9.146;2023-04-01T08:24:47;14.60;99.90
24645;DHT22;12780;45.502;9.146;2023-04-01T08:27:28;14.70;99.90
24645;DHT22;12780;45.502;9.146;2023-04-01T08:30:06;14.80;99.90
24645;DHT22;12780;45.502;9.146;2023-04-01T08:32:44;14.90;99.90
24645;DHT22;12780;45.502;9.146;2023-04-01T08:37:48;15.30;99.90
24645;DHT22;12780;45.502;9.146;2023-04-01T08:40:50;15.50;99.90
24645;DHT22;12780;45.502;9.146;2023-04-01T08:46:30;15.50;99.90
24645;DHT22;12780;45.502;9.146;2023-04-01T08:52:05;15.60;99.90
24645;DHT22;12780;45.502;9.146;2023-04-01T09:00:56;15.70;99.90
24645;DHT22;12780;45.502;9.146;2023-04-01T09:14:54;15.80;99.90
24645;DHT22;12780;45.502;9.146;2023-04-01T09:23:23;15.90;99.90
24645;DHT22;12780;45.502;9.146;2023-04-01T09:41:05;16.30;99.90
24645;DHT22;12780;45.502;9.146;2023-04-01T09:49:13;16.40;99.90
24645;DHT22;12780;45.502;9.146;2023-04-01T09:52:13;16.40;99.90
24645;DHT22;12780;45.502;9.146;2023-04-01T09:55:04;16.50;99.90
24645;DHT22;12780;45.502;9.146;2023-04-01T10:00:20;16.60;99.90
24645;DHT22;12780;45.502;9.146;2023-04-01T10:09:20;16.80;99.90
24645;DHT22;12780;45.502;9.146;2023-04-01T10:17:20;16.90;99.90
24645;DHT22;12780;45.502;9.146;2023-04-01T10:53:29;17.40;99.90
24645;DHT22;12780;45.502;9.146;2023-04-01T10:59:24;17.60;99.90
24645;DHT22;12780;45.502;9.146;2023-04-01T11:02:35;17.60;99.90
24645;DHT22;12780;45.502;9.146;2023-04-01T11:12:01;18.00;99.90
24645;DHT22;12780;45.502;9.146;2023-04-01T11:14:58;18.10;99.90
24645;DHT22;12780;45.502;9.146;2023-04-01T11:17:36;18.20;99.90
24645;DHT22;12780;45.502;9.146;2023-04-01T11:26:07;18.50;99.90
24645;DHT22;12780;45.502;9.146;2023-04-01T11:29:02;18.70;99.90
24645;DHT22;12780;45.502;9.146;2023-04-01T11:42:55;19.00;99.90
24645;DHT22;12780;45.502;9.146;2023-04-01T11:45:43;19.10;99.90
24645;DHT22;12780;45.502;9.146;2023-04-01T11:54:38;19.30;99.90
24645;DHT22;12780;45.502;9.146;2023-04-01T12:06:08;19.90;99.90
24645;DHT22;12780;45.502;9.146;2023-04-01T12:08:57;20.00;99.70
24645;DHT22;12780;45.502;9.146;2023-04-01T12:14:20;20.10;98.80
24645;DHT22;12780;45.502;9.146;2023-04-01T12:19:56;20.30;98.20
24645;DHT22;12780;45.502;9.146;2023-04-01T12:26:00;20.40;95.70
24645;DHT22;12780;45.502;9.146;2023-04-01T12:34:34;20.40;97.00
24645;DHT22;12780;45.502;9.146;2023-04-01T12:37:24;20.40;94.90
24645;DHT22;12780;45.502;9.146;2023-04-01T12:40:13;20.50;96.10
24645;DHT22;12780;45.502;9.146;2023-04-01T12:45:30;20.50;94.30
24645;DHT22;12780;45.502;9.146;2023-04-01T12:48:22;20.50;92.90
24645;DHT22;12780;45.502;9.146;2023-04-01T13:07:56;20.50;90.80
24645;DHT22;12780;45.502;9.146;2023-04-01T13:16:14;20.30;89.70
24645;DHT22;12780;45.502;9.146;2023-04-01T13:19:12;20.30;91.10
24645;DHT22;12780;45.502;9.146;2023-04-01T13:29:28;20.30;90.70
24645;DHT22;12780;45.502;9.146;2023-04-01T13:42:59;20.10;90.20
24645;DHT22;12780;45.502;9.146;2023-04-01T13:48:27;20.30;91.20
24645;DHT22;12780;45.502;9.146;2023-04-01T13:59:36;20.60;90.60
24645;DHT22;12780;45.502;9.146;2023-04-01T14:24:16;21.40;88.30
24645;DHT22;12780;45.502;9.146;2023-04-01T14:32:16;21.20;86.00
24645;DHT22;12780;45.502;9.146;2023-04-01T14:44:05;21.10;88.20
24645;DHT22;12780;45.502;9.146;2023-04-01T14:49:49;21.00;88.50
24645;DHT22;12780;45.502;9.146;2023-04-01T14:52:30;21.00;87.90
24645;DHT22;12780;45.502;9.146;2023-04-01T14:54:58;21.00;87.10
24645;DHT22;12780;45.502;9.146;2023-04-01T14:57:31;21.00;86.10
24645;DHT22;12780;45.502;9.146;2023-04-01T15:00:05;20.90;85.10
24645;DHT22;12780;45.502;9.146;2023-04-01T15:08:33;21.00;85.20
24645;DHT22;12780;45.502;9.146;2023-04-01T15:22:24;21.10;86.10
24645;DHT22;12780;45.502;9.146;2023-04-01T15:24:59;21.10;85.20
24645;DHT22;12780;45.502;9.146;2023-04-01T15:27:51;21.20;85.50
24645;DHT22;12780;45.502;9.146;2023-04-01T15:31:07;21.10;83.80
24645;DHT22;12780;45.502;9.146;2023-04-01T15:33:49;21.10;84.10
24645;DHT22;12780;45.502;9.146;2023-04-01T15:45:07;21.00;82.60
24645;DHT22;12780;45.502;9.146;2023-04-01T15:47:37;21.10;84.10
24645;DHT22;12780;45.502;9.146;2023-04-01T15:50:41;21.00;84.70
24645;DHT22;12780;45.502;9.146;2023-04-01T16:15:53;21.10;83.90
24645;DHT22;12780;45.502;9.146;2023-04-01T16:21:08;21.00;82.80
24645;DHT22;12780;45.502;9.146;2023-04-01T16:26:56;20.80;83.60
24645;DHT22;12780;45.502;9.146;2023-04-01T16:32:22;20.60;84.10
24645;DHT22;12780;45.502;9.146;2023-04-01T16:35:25;20.40;83.40
24645;DHT22;12780;45.502;9.146;2023-04-01T16:46:26;20.10;83.20
24645;DHT22;12780;45.502;9.146;2023-04-01T16:49:32;20.10;83.70
24645;DHT22;12780;45.502;9.146;2023-04-01T16:57:37;19.90;83.50
24645;DHT22;12780;45.502;9.146;2023-04-01T17:00:37;19.80;84.40
24645;DHT22;12780;45.502;9.146;2023-04-01T17:03:39;19.80;83.60
24645;DHT22;12780;45.502;9.146;2023-04-01T17:06:17;19.70;83.40
24645;DHT22;12780;45.502;9.146;2023-04-01T17:09:12;19.70;84.50
24645;DHT22;12780;45.502;9.146;2023-04-01T17:11:56;19.60;84.00
24645;DHT22;12780;45.502;9.146;2023-04-01T17:17:04;19.60;86.50
24645;DHT22;12780;45.502;9.146;2023-04-01T17:27:59;19.40;86.70
24645;DHT22;12780;45.502;9.146;2023-04-01T17:30:38;19.40;86.10
24645;DHT22;12780;45.502;9.146;2023-04-01T17:33:25;19.40;86.90
24645;DHT22;12780;45.502;9.146;2023-04-01T17:39:09;19.30;87.30
24645;DHT22;12780;45.502;9.146;2023-04-01T17:41:50;19.20;87.60
24645;DHT22;12780;45.502;9.146;2023-04-01T17:45:02;19.20;88.20
24645;DHT22;12780;45.502;9.146;2023-04-01T17:47:52;19.10;87.40
24645;DHT22;12780;45.502;9.146;2023-04-01T17:50:35;19.10;87.10
24645;DHT22;12780;45.502;9.146;2023-04-01T18:01:57;19.00;88.60
24645;DHT22;12780;45.502;9.146;2023-04-01T18:12:36;18.70;90.70
24645;DHT22;12780;45.502;9.146;2023-04-01T18:15:27;18.70;91.00
24645;DHT22;12780;45.502;9.146;2023-04-01T18:21:00;18.50;92.10
24645;DHT22;12780;45.502;9.146;2023-04-01T18:23:47;18.40;92.60
24645;DHT22;12780;45.502;9.146;2023-04-01T18:26:20;18.30;93.40
24645;DHT22;12780;45.502;9.146;2023-04-01T18:28:56;18.30;93.90
24645;DHT22;12780;45.502;9.146;2023-04-01T18:31:26;18.20;94.00
24645;DHT22;12780;45.502;9.146;2023-04-01T18:37:12;18.00;91.70
24645;DHT22;12780;45.502;9.146;2023-04-01T18:39:42;18.00;92.70
24645;DHT22;12780;45.502;9.146;2023-04-01T18:51:08;17.80;94.60
24645;DHT22;12780;45.502;9.146;2023-04-01T18:53:39;17.70;94.70
24645;DHT22;12780;45.502;9.146;2023-04-01T19:13:03;17.50;96.00
24645;DHT22;12780;45.502;9.146;2023-04-01T19:18:35;17.50;96.40
24645;DHT22;12780;45.502;9.146;2023-04-01T19:26:57;17.60;93.10
24645;DHT22;12780;45.502;9.146;2023-04-01T19:32:22;17.70;93.20
24645;DHT22;12780;45.502;9.146;2023-04-01T19:35:03;17.70;93.00
24645;DHT22;12780;45.502;9.146;2023-04-01T19:40:18;17.80;94.00
24645;DHT22;12780;45.502;9.146;2023-04-01T19:45:53;17.60;93.80
24645;DHT22;12780;45.502;9.146;2023-04-01T19:57:30;17.40;93.80
24645;DHT22;12780;45.502;9.146;2023-04-01T20:05:33;17.30;93.90
24645;DHT22;12780;45.502;9.146;2023-04-01T20:08:15;17.30;93.80
24645;DHT22;12780;45.502;9.146;2023-04-01T20:16:19;17.30;93.90
24645;DHT22;12780;45.502;9.146;2023-04-01T20:18:56;17.20;94.00
24645;DHT22;12780;45.502;9.146;2023-04-01T20:24:23;17.20;94.50
24645;DHT22;12780;45.502;9.146;2023-04-01T20:27:17;17.20;94.80
24645;DHT22;12780;45.502;9.146;2023-04-01T20:30:04;17.20;95.40
24645;DHT22;12780;45.502;9.146;2023-04-01T20:42:11;17.00;94.40
24645;DHT22;12780;45.502;9.146;2023-04-01T20:47:57;17.00;94.60
24645;DHT22;12780;45.502;9.146;2023-04-01T20:50:37;16.90;94.70
24645;DHT22;12780;45.502;9.146;2023-04-01T20:53:24;16.90;94.70
24645;DHT22;12780;45.502;9.146;2023-04-01T20:59:16;16.80;94.30
24645;DHT22;12780;45.502;9.146;2023-04-01T21:01:51;16.80;94.80
24645;DHT22;12780;45.502;9.146;2023-04-01T21:04:53;16.80;94.70
24645;DHT22;12780;45.502;9.146;2023-04-01T21:07:33;16.80;94.70
24645;DHT22;12780;45.502;9.146;2023-04-01T21:13:21;16.60;94.80
24645;DHT22;12780;45.502;9.146;2023-04-01T21:18:42;16.50;95.10
24645;DHT22;12780;45.502;9.146;2023-04-01T21:27:12;16.40;96.10
24645;DHT22;12780;45.502;9.146;2023-04-01T21:32:46;16.30;96.70
24645;DHT22;12780;45.502;9.146;2023-04-01T21:35:39;16.30;96.70
24645;DHT22;12780;45.502;9.146;2023-04-01T22:00:17;15.90;97.20
24645;DHT22;12780;45.502;9.146;2023-04-01T22:08:34;15.80;97.50
24645;DHT22;12780;45.502;9.146;2023-04-01T22:13:39;15.70;97.30
24645;DHT22;12780;45.502;9.146;2023-04-01T22:16:29;15.70;97.30
24645;DHT22;12780;45.502;9.146;2023-04-01T22:19:12;15.70;97.20
24645;DHT22;12780;45.502;9.146;2023-04-01T22:24:39;15.60;97.70
24645;DHT22;12780;45.502;9.146;2023-04-01T22:30:19;15.60;97.80
24645;DHT22;12780;45.502;9.146;2023-04-01T22:32:59;15.60;97.60
24645;DHT22;12780;45.502;9.146;2023-04-01T22:35:33;15.60;97.30
24645;DHT22;12780;45.502;9.146;2023-04-01T22:41:11;15.40;97.10
24645;DHT22;12780;45.502;9.146;2023-04-01T22:43:41;15.40;97.00
24645;DHT22;12780;45.502;9.146;2023-04-01T22:49:17;15.40;96.70
24645;DHT22;12780;45.502;9.146;2023-04-01T22:51:54;15.30;96.90
24645;DHT22;12780;45.502;9.146;2023-04-01T22:54:25;15.30;97.00
24645;DHT22;12780;45.502;9.146;2023-04-01T23:02:19;15.20;97.50
24645;DHT22;12780;45.502;9.146;2023-04-01T23:04:51;15.20;97.60
24645;DHT22;12780;45.502;9.146;2023-04-01T23:07:54;15.30;98.00
24645;DHT22;12780;45.502;9.146;2023-04-01T23:10:26;15.20;98.10
24645;DHT22;12780;45.502;9.146;2023-04-01T23:12:56;15.10;98.40
24645;DHT22;12780;45.502;9.146;2023-04-01T23:15:23;15.00;98.80
24645;DHT22;12780;45.502;9.146;2023-04-01T23:18:13;15.00;98.80
24645;DHT22;12780;45.502;9.146;2023-04-01T23:26:21;14.80;98.70
24645;DHT22;12780;45.502;9.146;2023-04-01T23:28:54;14.80;98.40
24645;DHT22;12780;45.502;9.146;2023-04-01T23:34:00;14.70;98.10
24645;DHT22;12780;45.502;9.146;2023-04-01T23:36:26;14.70;98.20
24645;DHT22;12780;45.502;9.146;2023-04-01T23:38:52;14.70;98.20
24645;DHT22;12780;45.502;9.146;2023-04-01T23:41:25;14.80;98.20
24645;DHT22;12780;45.502;9.146;2023-04-01T23:44:04;14.70;98.20
24645;DHT22;12780;45.502;9.146;2023-04-01T23:46:32;14.70;98.70
24645;DHT22;12780;45.502;9.146;2023-04-01T23:48:59;14.60;98.60
24645;DHT22;12780;45.502;9.146;2023-04-01T23:51:28;14.40;99.00
24645;DHT22;12780;45.502;9.146;2023-04-01T23:54:18;14.20;99.20
24645;DHT22;12780;45.502;9.146;2023-04-01T23:56:47;14.00;99.60
24645;DHT22;12780;45.502;9.146;2023-04-01T23:59:29;14.00;99.80
